sensor_id;sensor_type;location;lat;lon;timestamp;pressure;altitude;pressure_sealevel;temperature;humidity
33286;BME280;19656;50.096;20.014;2023-05-27T00:03:50;99667.89;;;15.50;46.63
33286;BME280;19656;50.096;20.014;2023-05-27T00:08:53;99667.73;;;15.45;46.65
33286;BME280;19656;50.096;20.014;2023-05-27T00:13:56;99666.39;;;15.38;46.79
33286;BME280;19656;50.096;20.014;2023-05-27T00:18:59;99665.97;;;15.34;46.82
33286;BME280;19656;50.096;20.014;2023-05-27T00:24:03;99653.80;;;15.29;47.15
33286;BME280;19656;50.096;20.014;2023-05-27T00:29:07;99654.50;;;15.22;47.24
33286;BME280;19656;50.096;20.014;2023-05-27T00:34:11;99649.86;;;15.14;47.39
33286;BME280;19656;50.096;20.014;2023-05-27T00:39:14;99649.08;;;15.07;47.61
33286;BME280;19656;50.096;20.014;2023-05-27T02:45:29;99745.02;;;13.28;54.98
33286;BME280;19656;50.096;20.014;2023-05-27T02:50:33;99751.77;;;13.19;55.25
33286;BME280;19656;50.096;20.014;2023-05-27T02:55:37;99755.84;;;13.11;55.57
33286;BME280;19656;50.096;20.014;2023-05-27T03:00:40;99763.05;;;13.10;55.82
33286;BME280;19656;50.096;20.014;2023-05-27T03:05:44;99764.86;;;13.06;56.09
33286;BME280;19656;50.096;20.014;2023-05-27T03:10:47;99770.90;;;13.07;56.07
33286;BME280;19656;50.096;20.014;2023-05-27T03:15:50;99779.08;;;13.10;56.17
33286;BME280;19656;50.096;20.014;2023-05-27T03:20:54;99783.92;;;13.12;56.05
33286;BME280;19656;50.096;20.014;2023-05-27T03:25:57;99793.11;;;13.16;56.12
33286;BME280;19656;50.096;20.014;2023-05-27T03:31:01;99792.55;;;13.26;55.70
33286;BME280;19656;50.096;20.014;2023-05-27T03:36:29;99787.55;;;13.40;54.89
33286;BME280;19656;50.096;20.014;2023-05-27T03:41:34;99786.00;;;13.48;54.55
33286;BME280;19656;50.096;20.014;2023-05-27T03:46:38;99792.92;;;13.58;54.68
33286;BME280;19656;50.096;20.014;2023-05-27T03:51:42;99795.48;;;13.57;54.98
33286;BME280;19656;50.096;20.014;2023-05-27T03:56:47;99798.92;;;13.53;55.47
33286;BME280;19656;50.096;20.014;2023-05-27T04:01:51;99808.48;;;13.45;55.56
33286;BME280;19656;50.096;20.014;2023-05-27T04:06:54;99811.46;;;13.43;55.18
33286;BME280;19656;50.096;20.014;2023-05-27T04:11:58;99816.84;;;13.48;55.15
33286;BME280;19656;50.096;20.014;2023-05-27T04:17:01;99819.17;;;13.54;55.01
33286;BME280;19656;50.096;20.014;2023-05-27T04:22:04;99825.08;;;13.62;54.88
33286;BME280;19656;50.096;20.014;2023-05-27T04:27:08;99820.73;;;13.72;54.68
33286;BME280;19656;50.096;20.014;2023-05-27T04:33:29;99827.10;;;13.76;54.41
33286;BME280;19656;50.096;20.014;2023-05-27T04:38:32;99830.46;;;13.73;54.42
33286;BME280;19656;50.096;20.014;2023-05-27T04:43:39;99832.31;;;13.69;54.50
33286;BME280;19656;50.096;20.014;2023-05-27T04:48:45;99838.61;;;13.71;54.78
33286;BME280;19656;50.096;20.014;2023-05-27T05:33:29;99835.88;;;14.04;54.51
33286;BME280;19656;50.096;20.014;2023-05-27T05:38:34;99836.31;;;14.11;54.08
33286;BME280;19656;50.096;20.014;2023-05-27T05:43:37;99836.94;;;14.18;54.08
33286;BME280;19656;50.096;20.014;2023-05-27T05:48:41;99835.77;;;14.22;53.85
33286;BME280;19656;50.096;20.014;2023-05-27T05:53:46;99840.30;;;14.26;53.86
33286;BME280;19656;50.096;20.014;2023-05-27T05:58:50;99840.94;;;14.30;53.70
33286;BME280;19656;50.096;20.014;2023-05-27T06:03:55;99843.20;;;14.37;53.77
33286;BME280;19656;50.096;20.014;2023-05-27T06:09:06;99847.38;;;14.38;53.22
33286;BME280;19656;50.096;20.014;2023-05-27T06:14:09;99845.02;;;14.39;53.22
33286;BME280;19656;50.096;20.014;2023-05-27T06:19:12;99845.19;;;14.47;53.20
33286;BME280;19656;50.096;20.014;2023-05-27T06:24:27;99845.40;;;14.53;53.36
33286;BME280;19656;50.096;20.014;2023-05-27T06:35:21;99850.15;;;14.76;53.35
33286;BME280;19656;50.096;20.014;2023-05-27T06:40:25;99853.92;;;14.80;52.82
33286;BME280;19656;50.096;20.014;2023-05-27T06:45:28;99850.07;;;14.90;52.04
33286;BME280;19656;50.096;20.014;2023-05-27T06:50:40;99851.36;;;14.95;52.25
33286;BME280;19656;50.096;20.014;2023-05-27T06:55:44;99851.22;;;15.02;52.48
33286;BME280;19656;50.096;20.014;2023-05-27T07:01:03;99850.88;;;15.13;52.17
33286;BME280;19656;50.096;20.014;2023-05-27T07:06:11;99850.88;;;15.18;51.79
33286;BME280;19656;50.096;20.014;2023-05-27T07:11:23;99845.89;;;15.31;51.95
33286;BME280;19656;50.096;20.014;2023-05-27T07:16:37;99849.58;;;15.40;51.15
33286;BME280;19656;50.096;20.014;2023-05-27T07:21:41;99854.02;;;15.53;51.12
33286;BME280;19656;50.096;20.014;2023-05-27T07:26:49;99854.05;;;15.60;51.06
33286;BME280;19656;50.096;20.014;2023-05-27T07:33:29;99848.95;;;15.72;50.81
33286;BME280;19656;50.096;20.014;2023-05-27T07:38:32;99845.23;;;15.79;50.67
33286;BME280;19656;50.096;20.014;2023-05-27T07:43:35;99844.86;;;15.84;50.57
33286;BME280;19656;50.096;20.014;2023-05-27T07:48:38;99851.19;;;15.91;50.81
33286;BME280;19656;50.096;20.014;2023-05-27T07:53:42;99846.73;;;16.01;50.50
33286;BME280;19656;50.096;20.014;2023-05-27T07:58:47;99841.52;;;16.11;50.68
33286;BME280;19656;50.096;20.014;2023-05-27T08:03:50;99841.00;;;16.21;50.18
33286;BME280;19656;50.096;20.014;2023-05-27T08:09:32;99838.95;;;16.29;50.07
33286;BME280;19656;50.096;20.014;2023-05-27T08:14:55;99839.15;;;16.39;50.07
33286;BME280;19656;50.096;20.014;2023-05-27T08:20:31;99841.04;;;16.45;49.38
33286;BME280;19656;50.096;20.014;2023-05-27T08:25:53;99842.20;;;16.53;48.38
33286;BME280;19656;50.096;20.014;2023-05-27T08:31:21;99838.06;;;16.63;48.99
33286;BME280;19656;50.096;20.014;2023-05-27T08:36:29;99842.23;;;16.70;49.52
33286;BME280;19656;50.096;20.014;2023-05-27T08:41:32;99836.02;;;16.84;50.47
33286;BME280;19656;50.096;20.014;2023-05-27T08:46:39;99832.92;;;16.96;49.22
33286;BME280;19656;50.096;20.014;2023-05-27T08:52:29;99829.19;;;17.05;49.49
33286;BME280;19656;50.096;20.014;2023-05-27T08:57:34;99830.20;;;17.11;49.13
33286;BME280;19656;50.096;20.014;2023-05-27T09:02:39;99818.76;;;17.18;48.99
33286;BME280;19656;50.096;20.014;2023-05-27T09:07:49;99815.16;;;17.40;51.93
33286;BME280;19656;50.096;20.014;2023-05-27T09:12:52;99808.75;;;18.06;53.10
33286;BME280;19656;50.096;20.014;2023-05-27T09:17:55;99802.85;;;18.45;51.14
33286;BME280;19656;50.096;20.014;2023-05-27T09:23:04;99798.20;;;18.78;49.91
33286;BME280;19656;50.096;20.014;2023-05-27T09:28:07;99788.29;;;19.06;49.18
33286;BME280;19656;50.096;20.014;2023-05-27T09:33:11;99782.88;;;19.35;48.11
33286;BME280;19656;50.096;20.014;2023-05-27T09:38:14;99780.91;;;19.53;47.55
33286;BME280;19656;50.096;20.014;2023-05-27T09:43:19;99776.60;;;19.66;46.96
33286;BME280;19656;50.096;20.014;2023-05-27T09:48:23;99772.93;;;19.63;47.06
33286;BME280;19656;50.096;20.014;2023-05-27T09:53:27;99771.77;;;19.66;46.44
33286;BME280;19656;50.096;20.014;2023-05-27T09:58:30;99771.15;;;19.83;45.69
33286;BME280;19656;50.096;20.014;2023-05-27T10:03:36;99772.63;;;19.95;44.42
33286;BME280;19656;50.096;20.014;2023-05-27T10:08:43;99776.23;;;19.93;43.18
33286;BME280;19656;50.096;20.014;2023-05-27T10:13:47;99769.52;;;20.13;43.64
33286;BME280;19656;50.096;20.014;2023-05-27T10:18:55;99760.55;;;20.33;40.68
33286;BME280;19656;50.096;20.014;2023-05-27T10:24:00;99759.33;;;20.46;38.55
33286;BME280;19656;50.096;20.014;2023-05-27T10:33:29;99752.71;;;20.61;35.79
33286;BME280;19656;50.096;20.014;2023-05-27T10:38:36;99754.41;;;20.65;35.29
33286;BME280;19656;50.096;20.014;2023-05-27T10:43:39;99750.59;;;20.71;34.60
33286;BME280;19656;50.096;20.014;2023-05-27T10:48:43;99749.81;;;20.81;34.48
33286;BME280;19656;50.096;20.014;2023-05-27T10:53:46;99748.06;;;20.92;33.76
33286;BME280;19656;50.096;20.014;2023-05-27T10:59:01;99746.84;;;20.99;34.11
33286;BME280;19656;50.096;20.014;2023-05-27T11:04:08;99747.19;;;21.13;34.82
33286;BME280;19656;50.096;20.014;2023-05-27T11:09:11;99745.27;;;21.22;34.63
33286;BME280;19656;50.096;20.014;2023-05-27T11:14:17;99733.90;;;21.29;35.05
33286;BME280;19656;50.096;20.014;2023-05-27T11:19:23;99726.21;;;21.46;36.08
33286;BME280;19656;50.096;20.014;2023-05-27T11:24:26;99723.06;;;21.56;36.24
33286;BME280;19656;50.096;20.014;2023-05-27T11:29:30;99722.30;;;21.64;35.00
33286;BME280;19656;50.096;20.014;2023-05-27T11:34:35;99727.04;;;21.70;35.17
33286;BME280;19656;50.096;20.014;2023-05-27T11:39:49;99723.16;;;21.73;35.29
33286;BME280;19656;50.096;20.014;2023-05-27T11:44:53;99721.75;;;21.77;33.91
33286;BME280;19656;50.096;20.014;2023-05-27T11:49:57;99720.29;;;21.79;34.02
33286;BME280;19656;50.096;20.014;2023-05-27T11:55:00;99713.53;;;21.88;35.41
33286;BME280;19656;50.096;20.014;2023-05-27T12:00:04;99714.59;;;21.98;36.59
33286;BME280;19656;50.096;20.014;2023-05-27T12:05:10;99710.11;;;22.07;35.32
33286;BME280;19656;50.096;20.014;2023-05-27T12:10:27;99712.11;;;22.18;34.24
33286;BME280;19656;50.096;20.014;2023-05-27T12:15:30;99708.45;;;22.34;33.19
33286;BME280;19656;50.096;20.014;2023-05-27T12:20:36;99709.04;;;22.46;33.18
33286;BME280;19656;50.096;20.014;2023-05-27T12:25:44;99703.52;;;22.57;32.33
33286;BME280;19656;50.096;20.014;2023-05-27T12:30:48;99700.53;;;22.73;32.21
33286;BME280;19656;50.096;20.014;2023-05-27T12:35:51;99695.25;;;22.88;33.01
33286;BME280;19656;50.096;20.014;2023-05-27T12:40:55;99684.48;;;23.05;32.53
33286;BME280;19656;50.096;20.014;2023-05-27T12:45:59;99682.64;;;23.22;32.96
33286;BME280;19656;50.096;20.014;2023-05-27T12:51:02;99684.37;;;23.44;32.35
33286;BME280;19656;50.096;20.014;2023-05-27T12:56:06;99688.21;;;23.47;33.36
33286;BME280;19656;50.096;20.014;2023-05-27T13:01:09;99682.52;;;23.44;32.74
33286;BME280;19656;50.096;20.014;2023-05-27T13:06:13;99686.99;;;23.45;32.91
33286;BME280;19656;50.096;20.014;2023-05-27T13:11:16;99681.23;;;23.44;33.15
33286;BME280;19656;50.096;20.014;2023-05-27T13:16:20;99673.70;;;23.40;33.05
33286;BME280;19656;50.096;20.014;2023-05-27T13:21:23;99671.05;;;23.50;32.79
33286;BME280;19656;50.096;20.014;2023-05-27T13:26:27;99666.36;;;23.72;32.62
33286;BME280;19656;50.096;20.014;2023-05-27T13:31:31;99661.81;;;23.86;32.00
33286;BME280;19656;50.096;20.014;2023-05-27T13:36:35;99662.44;;;23.88;31.64
33286;BME280;19656;50.096;20.014;2023-05-27T13:41:38;99659.82;;;24.01;30.48
33286;BME280;19656;50.096;20.014;2023-05-27T13:46:45;99652.45;;;24.26;29.95
33286;BME280;19656;50.096;20.014;2023-05-27T13:51:50;99644.40;;;24.37;29.47
33286;BME280;19656;50.096;20.014;2023-05-27T13:56:54;99638.33;;;24.37;30.65
33286;BME280;19656;50.096;20.014;2023-05-27T14:01:57;99637.56;;;24.29;30.60
33286;BME280;19656;50.096;20.014;2023-05-27T14:07:01;99633.60;;;24.18;31.01
33286;BME280;19656;50.096;20.014;2023-05-27T14:12:04;99631.52;;;24.06;30.81
33286;BME280;19656;50.096;20.014;2023-05-27T14:17:08;99626.61;;;24.01;31.42
33286;BME280;19656;50.096;20.014;2023-05-27T14:22:11;99626.02;;;23.92;31.58
33286;BME280;19656;50.096;20.014;2023-05-27T14:27:15;99630.27;;;23.82;31.23
33286;BME280;19656;50.096;20.014;2023-05-27T14:32:19;99625.39;;;23.69;31.59
33286;BME280;19656;50.096;20.014;2023-05-27T14:37:22;99618.27;;;23.47;31.72
33286;BME280;19656;50.096;20.014;2023-05-27T14:42:26;99614.77;;;23.17;32.58
33286;BME280;19656;50.096;20.014;2023-05-27T14:47:29;99605.08;;;22.80;31.36
33286;BME280;19656;50.096;20.014;2023-05-27T14:52:33;99606.48;;;22.50;31.79
33286;BME280;19656;50.096;20.014;2023-05-27T14:57:36;99599.42;;;22.27;31.75
33286;BME280;19656;50.096;20.014;2023-05-27T15:02:39;99597.15;;;22.10;31.60
33286;BME280;19656;50.096;20.014;2023-05-27T15:07:43;99586.52;;;21.96;31.83
33286;BME280;19656;50.096;20.014;2023-05-27T15:12:46;99585.39;;;21.89;32.13
33286;BME280;19656;50.096;20.014;2023-05-27T17:25:28;99547.15;;;20.37;39.15
33286;BME280;19656;50.096;20.014;2023-05-27T17:30:32;99550.23;;;20.35;39.61
33286;BME280;19656;50.096;20.014;2023-05-27T17:35:38;99550.63;;;20.34;39.75
33286;BME280;19656;50.096;20.014;2023-05-27T17:40:42;99552.85;;;20.30;39.58
33286;BME280;19656;50.096;20.014;2023-05-27T17:45:45;99561.89;;;20.23;39.86
33286;BME280;19656;50.096;20.014;2023-05-27T17:50:48;99560.80;;;20.18;40.25
33286;BME280;19656;50.096;20.014;2023-05-27T17:55:52;99565.49;;;20.10;40.88
33286;BME280;19656;50.096;20.014;2023-05-27T18:00:55;99566.63;;;19.92;41.33
33286;BME280;19656;50.096;20.014;2023-05-27T18:06:02;99569.39;;;19.76;41.78
33286;BME280;19656;50.096;20.014;2023-05-27T18:11:07;99572.74;;;19.65;42.33
33286;BME280;19656;50.096;20.014;2023-05-27T18:16:10;99579.70;;;19.53;42.64
33286;BME280;19656;50.096;20.014;2023-05-27T18:21:14;99580.77;;;19.39;43.05
33286;BME280;19656;50.096;20.014;2023-05-27T18:26:17;99579.51;;;19.25;43.41
33286;BME280;19656;50.096;20.014;2023-05-27T18:31:22;99583.27;;;19.09;43.64
33286;BME280;19656;50.096;20.014;2023-05-27T18:36:39;99588.39;;;18.94;44.24
33286;BME280;19656;50.096;20.014;2023-05-27T18:41:58;99589.61;;;18.80;44.57
33286;BME280;19656;50.096;20.014;2023-05-27T18:47:02;99602.07;;;18.63;45.02
33286;BME280;19656;50.096;20.014;2023-05-27T18:52:05;99613.60;;;18.48;45.32
33286;BME280;19656;50.096;20.014;2023-05-27T18:57:08;99618.36;;;18.34;46.02
33286;BME280;19656;50.096;20.014;2023-05-27T19:02:12;99623.59;;;18.19;46.56
33286;BME280;19656;50.096;20.014;2023-05-27T19:07:16;99622.20;;;18.04;46.90
33286;BME280;19656;50.096;20.014;2023-05-27T19:12:19;99623.29;;;17.90;47.17
33286;BME280;19656;50.096;20.014;2023-05-27T19:17:23;99622.17;;;17.78;47.55
33286;BME280;19656;50.096;20.014;2023-05-27T19:22:26;99620.31;;;17.65;47.96
33286;BME280;19656;50.096;20.014;2023-05-27T19:27:29;99624.23;;;17.52;48.43
33286;BME280;19656;50.096;20.014;2023-05-27T19:33:32;99630.08;;;17.45;49.20
33286;BME280;19656;50.096;20.014;2023-05-27T19:38:35;99637.50;;;17.35;49.46
33286;BME280;19656;50.096;20.014;2023-05-27T19:43:38;99637.66;;;17.31;50.11
33286;BME280;19656;50.096;20.014;2023-05-27T19:48:41;99637.42;;;17.27;50.59
33286;BME280;19656;50.096;20.014;2023-05-27T19:53:54;99638.98;;;17.25;50.94
33286;BME280;19656;50.096;20.014;2023-05-27T19:58:58;99639.13;;;17.28;51.12
33286;BME280;19656;50.096;20.014;2023-05-27T20:04:01;99637.45;;;17.29;51.25
33286;BME280;19656;50.096;20.014;2023-05-27T20:09:05;99637.67;;;17.26;51.31
33286;BME280;19656;50.096;20.014;2023-05-27T20:14:08;99635.48;;;17.24;51.35
33286;BME280;19656;50.096;20.014;2023-05-27T20:19:11;99636.02;;;17.22;51.41
33286;BME280;19656;50.096;20.014;2023-05-27T20:24:14;99633.35;;;17.20;51.31
33286;BME280;19656;50.096;20.014;2023-05-27T20:29:18;99635.23;;;17.16;51.39
33286;BME280;19656;50.096;20.014;2023-05-27T20:34:21;99634.05;;;17.11;51.34
33286;BME280;19656;50.096;20.014;2023-05-27T20:39:24;99633.95;;;17.05;51.49
33286;BME280;19656;50.096;20.014;2023-05-27T20:44:28;99629.93;;;16.99;51.32
33286;BME280;19656;50.096;20.014;2023-05-27T20:49:31;99635.09;;;16.93;51.29
33286;BME280;19656;50.096;20.014;2023-05-27T20:54:35;99634.04;;;16.86;51.34
33286;BME280;19656;50.096;20.014;2023-05-27T20:59:39;99634.44;;;16.76;51.41
33286;BME280;19656;50.096;20.014;2023-05-27T21:04:42;99637.32;;;16.67;51.17
33286;BME280;19656;50.096;20.014;2023-05-27T21:09:46;99632.02;;;16.59;50.73
33286;BME280;19656;50.096;20.014;2023-05-27T21:14:49;99633.77;;;16.50;50.41
33286;BME280;19656;50.096;20.014;2023-05-27T21:19:52;99631.91;;;16.42;50.46
33286;BME280;19656;50.096;20.014;2023-05-27T21:24:56;99630.27;;;16.32;50.37
33286;BME280;19656;50.096;20.014;2023-05-27T21:33:39;99635.06;;;16.21;50.18
33286;BME280;19656;50.096;20.014;2023-05-27T21:38:42;99636.50;;;16.14;50.00
33286;BME280;19656;50.096;20.014;2023-05-27T21:43:50;99634.92;;;16.08;50.31
33286;BME280;19656;50.096;20.014;2023-05-27T21:49:00;99634.10;;;16.03;50.14
33286;BME280;19656;50.096;20.014;2023-05-27T21:54:04;99637.23;;;15.97;50.14
33286;BME280;19656;50.096;20.014;2023-05-27T21:59:07;99630.27;;;15.92;49.98
33286;BME280;19656;50.096;20.014;2023-05-27T22:04:11;99632.09;;;15.87;50.03
33286;BME280;19656;50.096;20.014;2023-05-27T22:09:14;99631.66;;;15.78;50.05
33286;BME280;19656;50.096;20.014;2023-05-27T22:14:18;99631.23;;;15.69;50.33
33286;BME280;19656;50.096;20.014;2023-05-27T22:19:21;99626.05;;;15.52;50.33
33286;BME280;19656;50.096;20.014;2023-05-27T22:24:25;99628.61;;;15.34;50.24
33286;BME280;19656;50.096;20.014;2023-05-27T22:29:28;99624.80;;;15.20;50.09
33286;BME280;19656;50.096;20.014;2023-05-27T22:34:31;99620.06;;;15.09;49.95
33286;BME280;19656;50.096;20.014;2023-05-27T22:39:34;99619.47;;;14.97;49.98
33286;BME280;19656;50.096;20.014;2023-05-27T22:44:37;99617.27;;;14.82;50.17
33286;BME280;19656;50.096;20.014;2023-05-27T22:49:40;99612.54;;;14.71;49.95
33286;BME280;19656;50.096;20.014;2023-05-27T22:54:43;99609.52;;;14.61;50.35
33286;BME280;19656;50.096;20.014;2023-05-27T22:59:47;99606.19;;;14.49;50.55
33286;BME280;19656;50.096;20.014;2023-05-27T23:04:50;99599.55;;;14.39;51.07
33286;BME280;19656;50.096;20.014;2023-05-27T23:09:53;99598.02;;;14.30;51.26
33286;BME280;19656;50.096;20.014;2023-05-27T23:14:57;99598.92;;;14.22;51.30
33286;BME280;19656;50.096;20.014;2023-05-27T23:20:00;99595.17;;;14.14;51.66
33286;BME280;19656;50.096;20.014;2023-05-27T23:25:04;99592.50;;;14.09;51.86
33286;BME280;19656;50.096;20.014;2023-05-27T23:33:37;99589.75;;;13.99;51.93
33286;BME280;19656;50.096;20.014;2023-05-27T23:38:40;99593.91;;;13.88;52.40
33286;BME280;19656;50.096;20.014;2023-05-27T23:43:43;99588.45;;;13.79;52.52
33286;BME280;19656;50.096;20.014;2023-05-27T23:48:47;99581.00;;;13.70;52.70
33286;BME280;19656;50.096;20.014;2023-05-27T23:53:50;99572.52;;;13.61;52.88
33286;BME280;19656;50.096;20.014;2023-05-27T23:58:53;99575.47;;;13.54;53.19
